sensor_id;sensor_type;location;lat;lon;timestamp;P1;durP1;ratioP1;P2;durP2;ratioP2
16973;SDS011;8603;46.944;7.412;2022-12-24T00:01:11;2.30;;;1.67;;
16973;SDS011;8603;46.944;7.412;2022-12-24T00:04:02;2.07;;;1.40;;
16973;SDS011;8603;46.944;7.412;2022-12-24T00:06:33;2.20;;;1.30;;
16973;SDS011;8603;46.944;7.412;2022-12-24T00:09:20;2.80;;;1.40;;
16973;SDS011;8603;46.944;7.412;2022-12-24T00:15:32;2.33;;;1.50;;
16973;SDS011;8603;46.944;7.412;2022-12-24T00:18:01;1.77;;;1.40;;
16973;SDS011;8603;46.944;7.412;2022-12-24T00:20:27;2.27;;;2.07;;
16973;SDS011;8603;46.944;7.412;2022-12-24T00:22:53;3.13;;;2.03;;
16973;SDS011;8603;46.944;7.412;2022-12-24T00:25:18;3.40;;;2.17;;
16973;SDS011;8603;46.944;7.412;2022-12-24T00:27:47;2.00;;;1.53;;
16973;SDS011;8603;46.944;7.412;2022-12-24T00:30:13;2.93;;;2.37;;
16973;SDS011;8603;46.944;7.412;2022-12-24T00:32:41;2.53;;;2.07;;
16973;SDS011;8603;46.944;7.412;2022-12-24T00:35:07;1.93;;;1.83;;
16973;SDS011;8603;46.944;7.412;2022-12-24T00:37:32;2.67;;;2.37;;
16973;SDS011;8603;46.944;7.412;2022-12-24T00:39:58;15.07;;;8.97;;
16973;SDS011;8603;46.944;7.412;2022-12-24T00:42:24;10.63;;;6.00;;
16973;SDS011;8603;46.944;7.412;2022-12-24T00:44:49;6.93;;;4.20;;
16973;SDS011;8603;46.944;7.412;2022-12-24T00:47:15;2.67;;;2.30;;
16973;SDS011;8603;46.944;7.412;2022-12-24T00:49:44;2.50;;;2.10;;
16973;SDS011;8603;46.944;7.412;2022-12-24T00:52:12;1.90;;;1.80;;
16973;SDS011;8603;46.944;7.412;2022-12-24T00:54:42;1.83;;;1.73;;
16973;SDS011;8603;46.944;7.412;2022-12-24T00:57:08;1.83;;;1.70;;
16973;SDS011;8603;46.944;7.412;2022-12-24T00:59:40;2.80;;;1.93;;
16973;SDS011;8603;46.944;7.412;2022-12-24T01:16:31;8.43;;;5.40;;
16973;SDS011;8603;46.944;7.412;2022-12-24T01:22:50;3.67;;;3.37;;
16973;SDS011;8603;46.944;7.412;2022-12-24T01:25:25;3.57;;;2.47;;
16973;SDS011;8603;46.944;7.412;2022-12-24T01:27:55;5.93;;;2.70;;
16973;SDS011;8603;46.944;7.412;2022-12-24T01:33:49;3.93;;;2.97;;
16973;SDS011;8603;46.944;7.412;2022-12-24T01:36:14;4.73;;;3.40;;
16973;SDS011;8603;46.944;7.412;2022-12-24T01:38:46;2.20;;;2.00;;
16973;SDS011;8603;46.944;7.412;2022-12-24T01:44:42;2.90;;;2.30;;
16973;SDS011;8603;46.944;7.412;2022-12-24T01:54:19;1.40;;;1.30;;
16973;SDS011;8603;46.944;7.412;2022-12-24T01:59:54;1.50;;;1.40;;
16973;SDS011;8603;46.944;7.412;2022-12-24T02:02:25;1.20;;;1.20;;
16973;SDS011;8603;46.944;7.412;2022-12-24T02:05:02;2.20;;;1.30;;
16973;SDS011;8603;46.944;7.412;2022-12-24T02:07:34;0.83;;;0.83;;
16973;SDS011;8603;46.944;7.412;2022-12-24T02:10:15;1.50;;;1.10;;
16973;SDS011;8603;46.944;7.412;2022-12-24T02:13:10;1.40;;;1.30;;
16973;SDS011;8603;46.944;7.412;2022-12-24T02:22:30;2.23;;;1.50;;
16973;SDS011;8603;46.944;7.412;2022-12-24T02:25:09;2.73;;;1.60;;
16973;SDS011;8603;46.944;7.412;2022-12-24T02:30:32;1.20;;;1.10;;
16973;SDS011;8603;46.944;7.412;2022-12-24T02:33:10;1.20;;;1.10;;
16973;SDS011;8603;46.944;7.412;2022-12-24T02:35:47;1.33;;;1.20;;
16973;SDS011;8603;46.944;7.412;2022-12-24T02:38:26;1.47;;;1.17;;
16973;SDS011;8603;46.944;7.412;2022-12-24T02:44:24;1.87;;;1.23;;
16973;SDS011;8603;46.944;7.412;2022-12-24T02:46:55;1.70;;;1.60;;
16973;SDS011;8603;46.944;7.412;2022-12-24T02:52:32;1.40;;;1.30;;
16973;SDS011;8603;46.944;7.412;2022-12-24T02:54:59;1.73;;;1.20;;
16973;SDS011;8603;46.944;7.412;2022-12-24T02:58:36;1.40;;;1.30;;
16973;SDS011;8603;46.944;7.412;2022-12-24T03:09:19;1.40;;;1.20;;
16973;SDS011;8603;46.944;7.412;2022-12-24T03:11:54;1.60;;;1.50;;
16973;SDS011;8603;46.944;7.412;2022-12-24T03:15:03;2.70;;;1.43;;
16973;SDS011;8603;46.944;7.412;2022-12-24T03:24:00;1.37;;;1.27;;
16973;SDS011;8603;46.944;7.412;2022-12-24T03:29:38;1.30;;;1.10;;
16973;SDS011;8603;46.944;7.412;2022-12-24T03:35:09;1.30;;;1.20;;
16973;SDS011;8603;46.944;7.412;2022-12-24T03:37:41;1.30;;;1.20;;
16973;SDS011;8603;46.944;7.412;2022-12-24T03:40:16;1.23;;;1.13;;
16973;SDS011;8603;46.944;7.412;2022-12-24T03:48:46;1.23;;;1.00;;
16973;SDS011;8603;46.944;7.412;2022-12-24T03:51:18;1.37;;;1.13;;
16973;SDS011;8603;46.944;7.412;2022-12-24T03:54:54;2.07;;;0.97;;
16973;SDS011;8603;46.944;7.412;2022-12-24T03:57:12;1.30;;;1.20;;
16973;SDS011;8603;46.944;7.412;2022-12-24T03:59:41;1.93;;;1.20;;
16973;SDS011;8603;46.944;7.412;2022-12-24T04:02:18;2.17;;;1.20;;
16973;SDS011;8603;46.944;7.412;2022-12-24T04:04:43;1.10;;;0.97;;
16973;SDS011;8603;46.944;7.412;2022-12-24T04:07:09;2.63;;;1.13;;
16973;SDS011;8603;46.944;7.412;2022-12-24T04:09:35;1.07;;;0.97;;
16973;SDS011;8603;46.944;7.412;2022-12-24T04:12:01;0.87;;;0.83;;
16973;SDS011;8603;46.944;7.412;2022-12-24T04:14:26;0.97;;;0.97;;
16973;SDS011;8603;46.944;7.412;2022-12-24T04:16:52;3.63;;;1.10;;
16973;SDS011;8603;46.944;7.412;2022-12-24T04:19:18;1.30;;;0.90;;
16973;SDS011;8603;46.944;7.412;2022-12-24T04:21:43;1.60;;;1.03;;
16973;SDS011;8603;46.944;7.412;2022-12-24T04:24:09;2.30;;;1.30;;
16973;SDS011;8603;46.944;7.412;2022-12-24T04:26:34;2.00;;;1.00;;
16973;SDS011;8603;46.944;7.412;2022-12-24T04:29:00;1.60;;;0.90;;
16973;SDS011;8603;46.944;7.412;2022-12-24T04:31:25;1.43;;;0.87;;
16973;SDS011;8603;46.944;7.412;2022-12-24T04:33:51;2.90;;;1.10;;
16973;SDS011;8603;46.944;7.412;2022-12-24T04:36:17;2.73;;;0.80;;
16973;SDS011;8603;46.944;7.412;2022-12-24T04:38:45;3.67;;;1.10;;
16973;SDS011;8603;46.944;7.412;2022-12-24T04:41:13;1.00;;;0.90;;
16973;SDS011;8603;46.944;7.412;2022-12-24T04:43:40;0.97;;;0.83;;
16973;SDS011;8603;46.944;7.412;2022-12-24T04:46:07;1.47;;;1.13;;
16973;SDS011;8603;46.944;7.412;2022-12-24T04:48:35;1.93;;;0.90;;
16973;SDS011;8603;46.944;7.412;2022-12-24T04:51:02;2.10;;;1.40;;
16973;SDS011;8603;46.944;7.412;2022-12-24T04:53:29;2.00;;;1.17;;
16973;SDS011;8603;46.944;7.412;2022-12-24T04:55:55;1.40;;;1.30;;
16973;SDS011;8603;46.944;7.412;2022-12-24T04:58:21;2.10;;;1.30;;
16973;SDS011;8603;46.944;7.412;2022-12-24T05:00:46;2.03;;;1.10;;
16973;SDS011;8603;46.944;7.412;2022-12-24T05:03:12;1.77;;;1.13;;
16973;SDS011;8603;46.944;7.412;2022-12-24T05:05:38;3.63;;;1.33;;
16973;SDS011;8603;46.944;7.412;2022-12-24T05:08:03;1.77;;;1.27;;
16973;SDS011;8603;46.944;7.412;2022-12-24T05:10:29;1.87;;;1.23;;
16973;SDS011;8603;46.944;7.412;2022-12-24T05:12:55;1.57;;;1.20;;
16973;SDS011;8603;46.944;7.412;2022-12-24T05:15:20;3.30;;;1.20;;
16973;SDS011;8603;46.944;7.412;2022-12-24T05:17:46;2.33;;;1.10;;
16973;SDS011;8603;46.944;7.412;2022-12-24T05:20:11;1.80;;;1.10;;
16973;SDS011;8603;46.944;7.412;2022-12-24T05:22:37;1.20;;;1.10;;
16973;SDS011;8603;46.944;7.412;2022-12-24T05:25:21;1.90;;;1.23;;
16973;SDS011;8603;46.944;7.412;2022-12-24T05:28:05;1.53;;;1.00;;
16973;SDS011;8603;46.944;7.412;2022-12-24T05:30:31;1.67;;;0.90;;
16973;SDS011;8603;46.944;7.412;2022-12-24T05:32:56;2.43;;;1.27;;
16973;SDS011;8603;46.944;7.412;2022-12-24T05:35:22;3.17;;;1.47;;
16973;SDS011;8603;46.944;7.412;2022-12-24T05:37:48;2.63;;;1.90;;
16973;SDS011;8603;46.944;7.412;2022-12-24T05:40:13;1.40;;;1.23;;
16973;SDS011;8603;46.944;7.412;2022-12-24T05:42:39;2.07;;;1.20;;
16973;SDS011;8603;46.944;7.412;2022-12-24T05:45:04;4.50;;;1.17;;
16973;SDS011;8603;46.944;7.412;2022-12-24T05:47:31;2.87;;;1.10;;
16973;SDS011;8603;46.944;7.412;2022-12-24T05:49:56;4.03;;;1.30;;
16973;SDS011;8603;46.944;7.412;2022-12-24T05:52:22;2.53;;;1.67;;
16973;SDS011;8603;46.944;7.412;2022-12-24T05:54:47;3.53;;;1.70;;
16973;SDS011;8603;46.944;7.412;2022-12-24T05:57:13;3.10;;;1.30;;
16973;SDS011;8603;46.944;7.412;2022-12-24T05:59:38;1.47;;;0.90;;
16973;SDS011;8603;46.944;7.412;2022-12-24T06:02:04;1.00;;;1.00;;
16973;SDS011;8603;46.944;7.412;2022-12-24T06:04:29;2.93;;;1.03;;
16973;SDS011;8603;46.944;7.412;2022-12-24T06:06:55;5.20;;;3.03;;
16973;SDS011;8603;46.944;7.412;2022-12-24T06:09:20;11.50;;;6.27;;
16973;SDS011;8603;46.944;7.412;2022-12-24T06:11:46;7.43;;;5.60;;
16973;SDS011;8603;46.944;7.412;2022-12-24T06:14:12;7.87;;;4.93;;
16973;SDS011;8603;46.944;7.412;2022-12-24T06:16:37;8.07;;;4.13;;
16973;SDS011;8603;46.944;7.412;2022-12-24T06:19:03;4.50;;;2.67;;
16973;SDS011;8603;46.944;7.412;2022-12-24T06:21:29;2.63;;;1.93;;
16973;SDS011;8603;46.944;7.412;2022-12-24T06:23:54;2.37;;;1.60;;
16973;SDS011;8603;46.944;7.412;2022-12-24T06:26:20;4.10;;;1.27;;
16973;SDS011;8603;46.944;7.412;2022-12-24T06:28:47;1.93;;;1.30;;
16973;SDS011;8603;46.944;7.412;2022-12-24T06:31:15;2.93;;;1.17;;
16973;SDS011;8603;46.944;7.412;2022-12-24T06:33:42;1.23;;;1.13;;
16973;SDS011;8603;46.944;7.412;2022-12-24T06:36:09;1.47;;;1.37;;
16973;SDS011;8603;46.944;7.412;2022-12-24T06:38:38;3.20;;;1.40;;
16973;SDS011;8603;46.944;7.412;2022-12-24T06:41:04;2.07;;;1.07;;
16973;SDS011;8603;46.944;7.412;2022-12-24T06:43:31;2.20;;;1.17;;
16973;SDS011;8603;46.944;7.412;2022-12-24T06:45:59;1.13;;;1.03;;
16973;SDS011;8603;46.944;7.412;2022-12-24T06:48:25;2.27;;;1.20;;
16973;SDS011;8603;46.944;7.412;2022-12-24T06:50:51;2.50;;;1.50;;
16973;SDS011;8603;46.944;7.412;2022-12-24T06:53:16;1.37;;;1.20;;
16973;SDS011;8603;46.944;7.412;2022-12-24T06:55:42;2.00;;;0.97;;
16973;SDS011;8603;46.944;7.412;2022-12-24T06:58:08;2.53;;;1.20;;
16973;SDS011;8603;46.944;7.412;2022-12-24T07:00:33;1.30;;;1.20;;
16973;SDS011;8603;46.944;7.412;2022-12-24T07:02:59;1.47;;;1.17;;
16973;SDS011;8603;46.944;7.412;2022-12-24T07:05:26;1.50;;;1.20;;
16973;SDS011;8603;46.944;7.412;2022-12-24T07:07:52;2.40;;;1.07;;
16973;SDS011;8603;46.944;7.412;2022-12-24T07:10:18;2.20;;;1.07;;
16973;SDS011;8603;46.944;7.412;2022-12-24T07:12:46;2.03;;;1.20;;
16973;SDS011;8603;46.944;7.412;2022-12-24T07:15:12;2.43;;;1.20;;
16973;SDS011;8603;46.944;7.412;2022-12-24T07:17:38;3.73;;;1.10;;
16973;SDS011;8603;46.944;7.412;2022-12-24T07:20:04;1.60;;;1.10;;
16973;SDS011;8603;46.944;7.412;2022-12-24T12:58:48;1.07;;;1.00;;
16973;SDS011;8603;46.944;7.412;2022-12-24T13:05:08;1.10;;;1.00;;
16973;SDS011;8603;46.944;7.412;2022-12-24T14:22:35;2.17;;;1.73;;
16973;SDS011;8603;46.944;7.412;2022-12-24T14:25:58;1.70;;;1.60;;
16973;SDS011;8603;46.944;7.412;2022-12-24T14:32:35;2.23;;;1.60;;
16973;SDS011;8603;46.944;7.412;2022-12-24T14:35:04;2.53;;;2.07;;
16973;SDS011;8603;46.944;7.412;2022-12-24T14:37:31;1.67;;;1.57;;
16973;SDS011;8603;46.944;7.412;2022-12-24T14:39:57;1.50;;;1.40;;
16973;SDS011;8603;46.944;7.412;2022-12-24T14:42:33;2.10;;;1.70;;
16973;SDS011;8603;46.944;7.412;2022-12-24T14:45:18;1.50;;;1.40;;
16973;SDS011;8603;46.944;7.412;2022-12-24T14:48:01;1.73;;;1.63;;
16973;SDS011;8603;46.944;7.412;2022-12-24T14:51:01;2.60;;;2.40;;
16973;SDS011;8603;46.944;7.412;2022-12-24T15:02:37;6.27;;;3.83;;
16973;SDS011;8603;46.944;7.412;2022-12-24T15:05:15;4.60;;;4.20;;
16973;SDS011;8603;46.944;7.412;2022-12-24T15:07:47;3.83;;;3.40;;
16973;SDS011;8603;46.944;7.412;2022-12-24T15:10:25;3.77;;;2.97;;
16973;SDS011;8603;46.944;7.412;2022-12-24T15:12:57;4.50;;;3.53;;
16973;SDS011;8603;46.944;7.412;2022-12-24T15:15:27;4.50;;;3.60;;
16973;SDS011;8603;46.944;7.412;2022-12-24T15:17:53;4.77;;;3.27;;
16973;SDS011;8603;46.944;7.412;2022-12-24T15:20:20;4.40;;;3.80;;
16973;SDS011;8603;46.944;7.412;2022-12-24T15:22:49;4.43;;;3.63;;
16973;SDS011;8603;46.944;7.412;2022-12-24T15:27:52;4.10;;;3.70;;
16973;SDS011;8603;46.944;7.412;2022-12-24T15:30:25;5.47;;;3.83;;
16973;SDS011;8603;46.944;7.412;2022-12-24T15:32:52;5.53;;;3.67;;
16973;SDS011;8603;46.944;7.412;2022-12-24T15:38:10;6.27;;;4.40;;
16973;SDS011;8603;46.944;7.412;2022-12-24T15:40:48;5.07;;;4.57;;
16973;SDS011;8603;46.944;7.412;2022-12-24T15:43:14;6.20;;;4.53;;
16973;SDS011;8603;46.944;7.412;2022-12-24T15:45:41;5.77;;;5.27;;
16973;SDS011;8603;46.944;7.412;2022-12-24T15:48:13;5.57;;;5.00;;
16973;SDS011;8603;46.944;7.412;2022-12-24T15:50:49;5.93;;;4.97;;
16973;SDS011;8603;46.944;7.412;2022-12-24T15:56:12;6.47;;;5.80;;
16973;SDS011;8603;46.944;7.412;2022-12-24T15:58:52;6.67;;;5.97;;
16973;SDS011;8603;46.944;7.412;2022-12-24T16:01:52;6.30;;;5.70;;
16973;SDS011;8603;46.944;7.412;2022-12-24T16:04:24;6.67;;;6.07;;
16973;SDS011;8603;46.944;7.412;2022-12-24T16:12:02;8.23;;;6.77;;
16973;SDS011;8603;46.944;7.412;2022-12-24T16:14:28;8.17;;;6.73;;
16973;SDS011;8603;46.944;7.412;2022-12-24T16:16:56;7.27;;;6.47;;
16973;SDS011;8603;46.944;7.412;2022-12-24T16:19:31;8.80;;;6.67;;
16973;SDS011;8603;46.944;7.412;2022-12-24T16:21:59;8.90;;;8.00;;
16973;SDS011;8603;46.944;7.412;2022-12-24T16:24:49;9.43;;;8.10;;
16973;SDS011;8603;46.944;7.412;2022-12-24T16:27:19;7.73;;;6.93;;
16973;SDS011;8603;46.944;7.412;2022-12-24T16:29:45;8.90;;;8.00;;
16973;SDS011;8603;46.944;7.412;2022-12-24T16:34:57;9.17;;;8.20;;
16973;SDS011;8603;46.944;7.412;2022-12-24T16:37:23;8.43;;;7.57;;
16973;SDS011;8603;46.944;7.412;2022-12-24T16:39:49;9.10;;;8.20;;
16973;SDS011;8603;46.944;7.412;2022-12-24T16:42:15;9.17;;;8.27;;
16973;SDS011;8603;46.944;7.412;2022-12-24T16:44:59;9.97;;;8.97;;
16973;SDS011;8603;46.944;7.412;2022-12-24T16:47:25;11.27;;;9.30;;
16973;SDS011;8603;46.944;7.412;2022-12-24T16:49:55;9.30;;;8.33;;
16973;SDS011;8603;46.944;7.412;2022-12-24T16:52:24;10.60;;;9.00;;
16973;SDS011;8603;46.944;7.412;2022-12-24T16:54:52;10.03;;;8.83;;
16973;SDS011;8603;46.944;7.412;2022-12-24T16:57:20;9.87;;;8.87;;
16973;SDS011;8603;46.944;7.412;2022-12-24T16:59:46;11.70;;;9.20;;
16973;SDS011;8603;46.944;7.412;2022-12-24T17:02:13;11.23;;;9.57;;
16973;SDS011;8603;46.944;7.412;2022-12-24T17:04:41;9.50;;;8.60;;
16973;SDS011;8603;46.944;7.412;2022-12-24T17:07:07;8.80;;;7.90;;
16973;SDS011;8603;46.944;7.412;2022-12-24T17:09:34;8.87;;;7.40;;
16973;SDS011;8603;46.944;7.412;2022-12-24T17:12:01;9.37;;;8.37;;
16973;SDS011;8603;46.944;7.412;2022-12-24T17:14:27;10.00;;;9.00;;
16973;SDS011;8603;46.944;7.412;2022-12-24T17:16:52;10.73;;;9.60;;
16973;SDS011;8603;46.944;7.412;2022-12-24T17:19:18;15.50;;;11.93;;
16973;SDS011;8603;46.944;7.412;2022-12-24T17:21:43;12.30;;;10.47;;
16973;SDS011;8603;46.944;7.412;2022-12-24T17:24:09;13.63;;;12.23;;
16973;SDS011;8603;46.944;7.412;2022-12-24T17:26:36;11.63;;;10.43;;
16973;SDS011;8603;46.944;7.412;2022-12-24T17:29:02;11.53;;;10.37;;
16973;SDS011;8603;46.944;7.412;2022-12-24T17:31:29;13.13;;;11.73;;
16973;SDS011;8603;46.944;7.412;2022-12-24T17:33:55;14.90;;;12.77;;
16973;SDS011;8603;46.944;7.412;2022-12-24T17:36:21;15.00;;;13.17;;
16973;SDS011;8603;46.944;7.412;2022-12-24T17:38:47;13.47;;;11.87;;
16973;SDS011;8603;46.944;7.412;2022-12-24T17:41:14;14.23;;;12.23;;
16973;SDS011;8603;46.944;7.412;2022-12-24T17:43:42;13.63;;;11.67;;
16973;SDS011;8603;46.944;7.412;2022-12-24T17:46:18;13.60;;;12.17;;
16973;SDS011;8603;46.944;7.412;2022-12-24T17:48:46;14.57;;;13.07;;
16973;SDS011;8603;46.944;7.412;2022-12-24T17:51:13;19.17;;;14.97;;
16973;SDS011;8603;46.944;7.412;2022-12-24T17:53:41;17.83;;;14.40;;
16973;SDS011;8603;46.944;7.412;2022-12-24T17:56:08;25.20;;;18.63;;
16973;SDS011;8603;46.944;7.412;2022-12-24T17:58:36;24.87;;;19.00;;
16973;SDS011;8603;46.944;7.412;2022-12-24T18:01:02;17.30;;;13.87;;
16973;SDS011;8603;46.944;7.412;2022-12-24T18:03:28;16.27;;;14.57;;
16973;SDS011;8603;46.944;7.412;2022-12-24T18:05:54;16.17;;;13.57;;
16973;SDS011;8603;46.944;7.412;2022-12-24T18:08:26;15.90;;;13.93;;
16973;SDS011;8603;46.944;7.412;2022-12-24T18:10:51;16.50;;;13.60;;
16973;SDS011;8603;46.944;7.412;2022-12-24T18:13:17;15.10;;;13.47;;
16973;SDS011;8603;46.944;7.412;2022-12-24T18:15:44;15.70;;;14.10;;
16973;SDS011;8603;46.944;7.412;2022-12-24T18:18:09;15.60;;;13.37;;
16973;SDS011;8603;46.944;7.412;2022-12-24T18:20:35;15.40;;;13.47;;
16973;SDS011;8603;46.944;7.412;2022-12-24T18:23:00;14.93;;;12.97;;
16973;SDS011;8603;46.944;7.412;2022-12-24T18:25:27;14.17;;;12.67;;
16973;SDS011;8603;46.944;7.412;2022-12-24T18:27:52;14.93;;;13.33;;
16973;SDS011;8603;46.944;7.412;2022-12-24T18:30:18;16.30;;;13.93;;
16973;SDS011;8603;46.944;7.412;2022-12-24T18:32:44;17.63;;;14.87;;
16973;SDS011;8603;46.944;7.412;2022-12-24T18:35:11;15.63;;;14.00;;
16973;SDS011;8603;46.944;7.412;2022-12-24T18:37:37;15.33;;;12.83;;
16973;SDS011;8603;46.944;7.412;2022-12-24T18:40:03;15.43;;;13.83;;
16973;SDS011;8603;46.944;7.412;2022-12-24T18:42:29;14.53;;;12.50;;
16973;SDS011;8603;46.944;7.412;2022-12-24T18:44:54;16.33;;;13.53;;
16973;SDS011;8603;46.944;7.412;2022-12-24T18:47:20;13.70;;;12.30;;
16973;SDS011;8603;46.944;7.412;2022-12-24T18:49:45;15.63;;;14.03;;
16973;SDS011;8603;46.944;7.412;2022-12-24T18:52:11;16.87;;;13.67;;
16973;SDS011;8603;46.944;7.412;2022-12-24T18:54:37;16.43;;;14.30;;
16973;SDS011;8603;46.944;7.412;2022-12-24T18:57:03;17.10;;;14.57;;
16973;SDS011;8603;46.944;7.412;2022-12-24T18:59:30;18.87;;;16.00;;
16973;SDS011;8603;46.944;7.412;2022-12-24T19:01:55;15.70;;;13.67;;
16973;SDS011;8603;46.944;7.412;2022-12-24T19:04:21;15.23;;;13.63;;
16973;SDS011;8603;46.944;7.412;2022-12-24T19:06:47;15.70;;;13.63;;
16973;SDS011;8603;46.944;7.412;2022-12-24T19:09:12;16.53;;;14.70;;
16973;SDS011;8603;46.944;7.412;2022-12-24T19:11:38;16.27;;;14.03;;
16973;SDS011;8603;46.944;7.412;2022-12-24T19:14:04;15.03;;;13.33;;
16973;SDS011;8603;46.944;7.412;2022-12-24T19:16:32;17.63;;;13.30;;
16973;SDS011;8603;46.944;7.412;2022-12-24T19:18:59;13.67;;;11.90;;
16973;SDS011;8603;46.944;7.412;2022-12-24T19:21:26;14.73;;;13.20;;
16973;SDS011;8603;46.944;7.412;2022-12-24T19:23:51;16.93;;;13.80;;
16973;SDS011;8603;46.944;7.412;2022-12-24T19:26:17;13.03;;;11.73;;
16973;SDS011;8603;46.944;7.412;2022-12-24T19:28:44;16.47;;;13.43;;
16973;SDS011;8603;46.944;7.412;2022-12-24T19:31:12;13.07;;;11.63;;
16973;SDS011;8603;46.944;7.412;2022-12-24T19:33:40;12.73;;;11.40;;
16973;SDS011;8603;46.944;7.412;2022-12-24T19:36:12;15.27;;;12.17;;
16973;SDS011;8603;46.944;7.412;2022-12-24T19:38:40;12.17;;;10.97;;
16973;SDS011;8603;46.944;7.412;2022-12-24T19:41:06;11.23;;;10.03;;
16973;SDS011;8603;46.944;7.412;2022-12-24T19:43:35;10.70;;;9.70;;
16973;SDS011;8603;46.944;7.412;2022-12-24T19:46:02;12.53;;;11.13;;
16973;SDS011;8603;46.944;7.412;2022-12-24T19:48:28;11.03;;;9.90;;
16973;SDS011;8603;46.944;7.412;2022-12-24T19:51:04;12.00;;;10.40;;
16973;SDS011;8603;46.944;7.412;2022-12-24T19:53:32;12.13;;;10.83;;
16973;SDS011;8603;46.944;7.412;2022-12-24T19:55:58;10.67;;;9.27;;
16973;SDS011;8603;46.944;7.412;2022-12-24T19:58:24;11.37;;;10.13;;
16973;SDS011;8603;46.944;7.412;2022-12-24T20:00:53;10.97;;;9.13;;
16973;SDS011;8603;46.944;7.412;2022-12-24T20:03:19;11.50;;;9.60;;
16973;SDS011;8603;46.944;7.412;2022-12-24T20:05:45;11.23;;;10.03;;
16973;SDS011;8603;46.944;7.412;2022-12-24T20:08:11;16.53;;;14.83;;
16973;SDS011;8603;46.944;7.412;2022-12-24T20:10:41;14.20;;;12.40;;
16973;SDS011;8603;46.944;7.412;2022-12-24T20:13:08;13.87;;;10.97;;
16973;SDS011;8603;46.944;7.412;2022-12-24T20:15:42;12.67;;;11.20;;
16973;SDS011;8603;46.944;7.412;2022-12-24T20:18:09;10.80;;;9.77;;
16973;SDS011;8603;46.944;7.412;2022-12-24T20:20:35;13.47;;;10.97;;
16973;SDS011;8603;46.944;7.412;2022-12-24T20:23:01;13.47;;;12.07;;
16973;SDS011;8603;46.944;7.412;2022-12-24T20:25:28;10.03;;;9.03;;
16973;SDS011;8603;46.944;7.412;2022-12-24T20:27:54;11.57;;;9.80;;
16973;SDS011;8603;46.944;7.412;2022-12-24T20:30:20;9.67;;;8.60;;
